Time;durP1;ratioP1;P1;durP2;ratioP2;P2;SDS_P1;SDS_P2;PMS_P1;PMS_P2;Temp;Humidity;BMP_temperature;BMP_pressure;BME280_temperature;BME280_humidity;BME280_pressure;Samples;Min_cycle;Max_cycle;Signal;HPM_P1;HPM_P2
2023/05/12 00:01:40;;;;;;;;;;;;;;;13.04;76.71;99621.50;4463618;32;34129;-75
2023/05/12 00:04:10;;;;;;;;;;;;;;;13.65;74.72;99624.31;4459649;32;34035;-76
2023/05/12 00:06:39;;;;;;;;;;;;;;;13.17;77.51;99615.09;4468390;32;33391;-76
2023/05/12 00:09:08;;;;;;;;;;;;;;;13.24;76.96;99603.63;4454920;32;33640;-75
2023/05/12 00:11:37;;;;;;;;;;;;;;;13.31;76.59;99601.75;4464276;31;33235;-75
2023/05/12 00:14:06;;;;;;;;;;;;;;;13.37;76.80;99609.41;4460242;32;33674;-76
2023/05/12 00:16:36;;;;;;;;;;;;;;;13.48;76.13;99603.06;4463118;32;34239;-76
2023/05/12 00:19:05;;;;;;;;;;;;;;;13.41;76.38;99599.78;4459850;32;34550;-76
2023/05/12 00:21:35;;;;;;;;;;;;;;;13.60;75.78;99600.13;4458707;32;32920;-76
2023/05/12 00:24:11;;;;;;;;;;;;;;;13.79;74.94;99597.87;4459257;32;34990;-76
2023/05/12 00:26:40;;;;;;;;;;;;;;;13.68;74.98;99597.34;4462804;32;34754;-77
2023/05/12 00:29:08;;;;;;;;;;;;;;;13.62;74.89;99593.97;4464089;32;33248;-76
2023/05/12 00:31:37;;;;;;;;;;;;;;;13.80;75.07;99592.62;4458365;32;33640;-78
2023/05/12 00:34:06;;;;;;;;;;;;;;;13.53;75.18;99598.56;4458275;32;35054;-77
2023/05/12 00:36:38;;;;;;;;;;;;;;;13.31;75.73;99585.25;4458884;32;34376;-78
2023/05/12 00:39:07;;;;;;;;;;;;;;;13.20;76.76;99588.97;4465270;32;32933;-76
2023/05/12 00:41:35;;;;;;;;;;;;;;;12.92;78.85;99582.75;4459807;32;32950;-77
2023/05/12 00:44:04;;;;;;;;;;;;;;;12.87;78.57;99588.06;4458124;32;33875;-78
2023/05/12 00:46:32;;;;;;;;;;;;;;;13.18;77.48;99593.38;4459750;32;34192;-78
2023/05/12 00:49:01;;;;;;;;;;;;;;;13.10;77.90;99584.06;4464419;32;33907;-77
2023/05/12 00:51:29;;;;;;;;;;;;;;;13.00;77.66;99583.44;4459466;32;34190;-78
2023/05/12 00:54:02;;;;;;;;;;;;;;;12.77;79.14;99589.19;4461323;32;34468;-76
2023/05/12 00:56:34;;;;;;;;;;;;;;;12.66;79.80;99581.63;4459362;32;32945;-78
2023/05/12 00:59:03;;;;;;;;;;;;;;;12.68;79.67;99584.19;4458541;32;33671;-78
2023/05/12 01:01:32;;;;;;;;;;;;;;;13.13;76.96;99587.41;4463550;32;32937;-79
2023/05/12 01:04:01;;;;;;;;;;;;;;;13.20;76.87;99582.91;4450385;32;33781;-76
2023/05/12 01:06:33;;;;;;;;;;;;;;;12.90;78.15;99584.53;4458686;32;34055;-76
2023/05/12 01:09:06;;;;;;;;;;;;;;;12.95;78.50;99577.44;4456505;32;32699;-77
2023/05/12 01:11:34;;;;;;;;;;;;;;;13.11;77.69;99578.78;4460084;32;33427;-76
2023/05/12 01:14:05;;;;;;;;;;;;;;;12.87;78.68;99575.03;4465853;32;34228;-76
2023/05/12 01:16:35;;;;;;;;;;;;;;;13.03;78.87;99580.75;4463816;32;34343;-78
2023/05/12 01:19:05;;;;;;;;;;;;;;;12.80;79.05;99583.88;4456320;32;34320;-76
2023/05/12 01:21:33;;;;;;;;;;;;;;;12.69;79.67;99585.91;4459854;32;34132;-77
2023/05/12 01:24:03;;;;;;;;;;;;;;;12.98;78.51;99577.41;4466864;32;34423;-77
2023/05/12 01:26:35;;;;;;;;;;;;;;;12.94;79.50;99587.00;4461219;32;35027;-76
2023/05/12 01:29:04;;;;;;;;;;;;;;;12.56;81.22;99585.31;4465390;32;33313;-78
2023/05/12 01:31:32;;;;;;;;;;;;;;;12.75;80.61;99585.75;4451862;32;34581;-76
2023/05/12 01:34:01;;;;;;;;;;;;;;;12.70;80.69;99583.25;4470536;32;34845;-76
2023/05/12 01:36:30;;;;;;;;;;;;;;;12.72;80.13;99580.63;4451792;32;34018;-78
2023/05/12 01:38:59;;;;;;;;;;;;;;;12.58;81.34;99586.16;4459949;32;34888;-76
2023/05/12 01:41:29;;;;;;;;;;;;;;;12.72;80.98;99583.22;4455063;32;32922;-76
2023/05/12 01:43:59;;;;;;;;;;;;;;;13.05;78.65;99588.50;4460139;32;33937;-76
2023/05/12 01:46:28;;;;;;;;;;;;;;;12.60;81.20;99586.97;4459317;32;34244;-76
2023/05/12 01:48:57;;;;;;;;;;;;;;;12.99;79.42;99589.50;4462008;32;33439;-76
2023/05/12 01:51:28;;;;;;;;;;;;;;;12.49;81.42;99588.94;4461308;32;33487;-76
2023/05/12 01:53:57;;;;;;;;;;;;;;;13.12;78.65;99598.75;4460863;32;35769;-76
2023/05/12 01:56:27;;;;;;;;;;;;;;;13.34;77.81;99596.47;4465985;32;35038;-76
2023/05/12 01:58:56;;;;;;;;;;;;;;;13.10;78.71;99602.28;4456263;32;33305;-76
2023/05/12 02:01:27;;;;;;;;;;;;;;;12.72;80.21;99601.44;4465057;32;33052;-76
2023/05/12 02:03:56;;;;;;;;;;;;;;;12.19;83.68;99606.94;4459990;32;34033;-78
2023/05/12 02:06:27;;;;;;;;;;;;;;;12.55;81.73;99604.44;4459585;32;34364;-78
2023/05/12 02:08:57;;;;;;;;;;;;;;;13.03;80.14;99606.78;4470876;32;37129;-76
2023/05/12 02:11:25;;;;;;;;;;;;;;;12.71;81.59;99605.81;4459070;32;33262;-76
2023/05/12 02:13:54;;;;;;;;;;;;;;;12.37;82.77;99597.87;4467012;32;34629;-76
2023/05/12 02:16:23;;;;;;;;;;;;;;;12.36;84.20;99598.78;4477352;32;33676;-77
2023/05/12 02:18:55;;;;;;;;;;;;;;;12.83;81.33;99599.47;4482579;32;34162;-79
2023/05/12 02:21:26;;;;;;;;;;;;;;;12.72;81.73;99601.44;4461757;32;34088;-78
2023/05/12 02:23:56;;;;;;;;;;;;;;;13.13;80.41;99607.41;4461628;32;34084;-77
2023/05/12 02:26:24;;;;;;;;;;;;;;;12.48;82.47;99605.47;4461978;32;34766;-78
2023/05/12 02:28:53;;;;;;;;;;;;;;;12.51;82.85;99614.03;4461866;32;34031;-76
2023/05/12 02:31:22;;;;;;;;;;;;;;;12.81;81.73;99607.28;4467370;32;32922;-77
2023/05/12 02:33:51;;;;;;;;;;;;;;;11.95;85.27;99609.16;4462892;32;33466;-79
2023/05/12 02:36:21;;;;;;;;;;;;;;;12.24;85.37;99607.69;4461798;32;33846;-79
2023/05/12 02:38:50;;;;;;;;;;;;;;;12.23;84.46;99611.22;4461227;32;33118;-79
2023/05/12 02:41:18;;;;;;;;;;;;;;;12.50;83.97;99612.34;4463973;32;32943;-78
2023/05/12 02:43:49;;;;;;;;;;;;;;;12.71;82.81;99611.00;4461599;32;34014;-77
2023/05/12 02:46:20;;;;;;;;;;;;;;;12.45;84.96;99614.19;4459443;32;33707;-77
2023/05/12 02:48:55;;;;;;;;;;;;;;;12.55;84.17;99605.28;4457931;32;33472;-78
2023/05/12 02:51:25;;;;;;;;;;;;;;;12.60;83.56;99602.59;4460616;32;33639;-77
2023/05/12 02:53:53;;;;;;;;;;;;;;;12.45;83.89;99605.53;4465844;32;36206;-77
2023/05/12 02:56:22;;;;;;;;;;;;;;;12.31;84.10;99606.69;4458146;32;33849;-76
2023/05/12 02:58:50;;;;;;;;;;;;;;;12.34;85.32;99606.59;4461614;32;34657;-77
2023/05/12 03:01:19;;;;;;;;;;;;;;;12.56;84.11;99608.75;4460453;32;33050;-77
2023/05/12 03:03:47;;;;;;;;;;;;;;;12.75;82.43;99607.41;4465641;32;34874;-77
2023/05/12 03:06:16;;;;;;;;;;;;;;;12.30;83.35;99611.94;4461697;32;34202;-77
2023/05/12 03:08:46;;;;;;;;;;;;;;;11.98;86.28;99615.19;4473636;32;34663;-76
2023/05/12 03:11:14;;;;;;;;;;;;;;;12.03;87.02;99613.34;4462075;32;33303;-77
2023/05/12 03:13:43;;;;;;;;;;;;;;;12.15;86.18;99611.38;4475287;32;33819;-78
2023/05/12 03:16:11;;;;;;;;;;;;;;;12.21;85.32;99615.59;4461446;32;33776;-77
2023/05/12 03:18:43;;;;;;;;;;;;;;;12.07;85.90;99612.41;4461294;32;33814;-77
2023/05/12 03:21:12;;;;;;;;;;;;;;;12.26;86.00;99607.69;4461368;32;32889;-78
2023/05/12 03:23:40;;;;;;;;;;;;;;;12.44;85.43;99603.81;4461314;32;34476;-77
2023/05/12 03:26:10;;;;;;;;;;;;;;;12.66;83.85;99605.06;4465526;32;34855;-77
2023/05/12 03:28:42;;;;;;;;;;;;;;;12.92;82.44;99608.78;4461083;32;33917;-78
2023/05/12 03:31:12;;;;;;;;;;;;;;;12.43;85.50;99607.31;4461034;32;33169;-77
2023/05/12 03:33:41;;;;;;;;;;;;;;;12.51;85.35;99608.00;4473189;32;34489;-77
2023/05/12 03:36:12;;;;;;;;;;;;;;;12.01;87.29;99609.91;4470195;32;34506;-78
2023/05/12 03:38:40;;;;;;;;;;;;;;;11.99;88.26;99612.56;4460562;32;33685;-78
2023/05/12 03:41:10;;;;;;;;;;;;;;;12.13;87.67;99612.28;4461196;32;33989;-77
2023/05/12 03:43:39;;;;;;;;;;;;;;;11.83;89.73;99611.97;4469227;32;34137;-78
2023/05/12 03:46:08;;;;;;;;;;;;;;;12.02;88.32;99609.06;4460499;32;34084;-77
2023/05/12 03:48:37;;;;;;;;;;;;;;;11.98;88.13;99617.78;4468961;32;33651;-78
2023/05/12 03:51:05;;;;;;;;;;;;;;;12.09;89.33;99616.69;4464402;32;33699;-77
2023/05/12 03:53:33;;;;;;;;;;;;;;;12.34;87.06;99617.00;4455329;32;34754;-79
2023/05/12 03:56:05;;;;;;;;;;;;;;;11.86;88.98;99621.44;4461114;32;33326;-76
2023/05/12 03:58:35;;;;;;;;;;;;;;;12.09;88.79;99614.09;4464350;32;34574;-78
2023/05/12 04:01:05;;;;;;;;;;;;;;;11.89;89.83;99619.69;4461016;32;33457;-77
2023/05/12 04:03:33;;;;;;;;;;;;;;;12.24;88.55;99618.09;4460232;32;33923;-77
2023/05/12 04:06:02;;;;;;;;;;;;;;;12.45;87.09;99623.75;4461090;32;33974;-76
2023/05/12 04:08:34;;;;;;;;;;;;;;;12.06;89.78;99621.09;4459363;32;33813;-77
2023/05/12 04:11:02;;;;;;;;;;;;;;;12.33;88.05;99627.47;4463130;32;33487;-79
2023/05/12 04:13:31;;;;;;;;;;;;;;;12.36;86.74;99624.78;4460194;32;33792;-76
2023/05/12 04:16:01;;;;;;;;;;;;;;;11.84;89.71;99624.09;4461845;32;35063;-77
2023/05/12 04:18:32;;;;;;;;;;;;;;;11.67;91.35;99618.34;4460773;32;33032;-78
2023/05/12 04:21:04;;;;;;;;;;;;;;;12.26;89.12;99633.69;4465010;32;35086;-77
2023/05/12 04:23:33;;;;;;;;;;;;;;;12.58;85.90;99627.78;4462022;32;34085;-78
2023/05/12 04:26:03;;;;;;;;;;;;;;;12.12;88.77;99639.16;4460973;32;34124;-77
2023/05/12 04:28:31;;;;;;;;;;;;;;;12.00;89.55;99642.87;4464452;32;33039;-77
2023/05/12 04:31:03;;;;;;;;;;;;;;;11.64;92.09;99644.38;4459799;32;33190;-77
2023/05/12 04:33:32;;;;;;;;;;;;;;;11.82;91.05;99633.66;4464127;32;34025;-77
2023/05/12 04:36:01;;;;;;;;;;;;;;;11.94;90.34;99638.66;4457866;32;34365;-78
2023/05/12 04:38:32;;;;;;;;;;;;;;;12.09;89.11;99644.44;4461610;32;34783;-78
2023/05/12 04:41:01;;;;;;;;;;;;;;;12.31;88.31;99643.09;4456842;32;33170;-77
2023/05/12 04:43:29;;;;;;;;;;;;;;;12.22;88.75;99638.09;4460774;32;33484;-78
2023/05/12 04:46:05;;;;;;;;;;;;;;;11.77;91.25;99637.22;4458098;32;34099;-78
2023/05/12 04:48:33;;;;;;;;;;;;;;;11.94;91.13;99638.66;4458749;32;34574;-79
2023/05/12 04:51:02;;;;;;;;;;;;;;;11.92;91.09;99634.38;4459545;32;34426;-77
2023/05/12 04:53:33;;;;;;;;;;;;;;;11.97;90.52;99639.50;4463626;32;33727;-77
2023/05/12 04:56:02;;;;;;;;;;;;;;;11.99;91.23;99645.53;4459454;32;33510;-78
2023/05/12 04:58:31;;;;;;;;;;;;;;;12.10;89.46;99647.00;4462844;32;33401;-77
2023/05/12 05:01:00;;;;;;;;;;;;;;;11.98;92.33;99646.38;4463935;32;33791;-77
2023/05/12 05:03:32;;;;;;;;;;;;;;;12.32;89.34;99639.62;4462776;32;33858;-78
2023/05/12 05:06:01;;;;;;;;;;;;;;;12.27;89.63;99645.78;4467530;32;34403;-78
2023/05/12 05:08:29;;;;;;;;;;;;;;;12.33;89.46;99640.47;4458343;32;33968;-79
2023/05/12 05:10:57;;;;;;;;;;;;;;;11.94;91.50;99651.66;4460549;32;32877;-78
2023/05/12 05:13:29;;;;;;;;;;;;;;;12.37;89.44;99648.19;4459321;32;33685;-79
2023/05/12 05:15:57;;;;;;;;;;;;;;;12.52;87.97;99652.19;4468213;32;34630;-77
2023/05/12 05:18:27;;;;;;;;;;;;;;;12.20;91.47;99652.00;4465290;32;34204;-79
2023/05/12 05:20:58;;;;;;;;;;;;;;;12.41;88.59;99648.97;4459011;32;33395;-78
2023/05/12 05:23:27;;;;;;;;;;;;;;;12.23;90.41;99652.81;4454928;32;33265;-77
2023/05/12 05:25:55;;;;;;;;;;;;;;;12.32;89.89;99651.75;4447491;32;34340;-78
2023/05/12 05:28:27;;;;;;;;;;;;;;;12.61;88.62;99648.53;4460737;32;34379;-77
2023/05/12 05:30:55;;;;;;;;;;;;;;;12.33;88.38;99653.50;4459318;32;33455;-77
2023/05/12 05:33:24;;;;;;;;;;;;;;;12.67;87.47;99665.78;4465564;32;33482;-77
2023/05/12 05:35:52;;;;;;;;;;;;;;;12.02;89.93;99654.09;4458255;32;34030;-78
2023/05/12 05:38:22;;;;;;;;;;;;;;;11.89;91.39;99652.63;4463594;32;33762;-78
2023/05/12 05:40:51;;;;;;;;;;;;;;;12.13;91.01;99653.91;4462289;32;32786;-77
2023/05/12 05:43:22;;;;;;;;;;;;;;;12.08;89.90;99661.78;4460962;32;34146;-77
2023/05/12 05:45:50;;;;;;;;;;;;;;;12.11;90.21;99656.53;4461460;32;34347;-79
2023/05/12 05:48:22;;;;;;;;;;;;;;;12.16;90.71;99659.88;4459856;32;34058;-77
2023/05/12 05:50:51;;;;;;;;;;;;;;;12.26;89.63;99665.75;4468702;32;33020;-78
2023/05/12 05:53:20;;;;;;;;;;;;;;;12.25;89.91;99666.66;4457227;32;33562;-79
2023/05/12 05:55:51;;;;;;;;;;;;;;;12.92;86.41;99666.91;4462358;32;34303;-77
2023/05/12 05:58:20;;;;;;;;;;;;;;;12.69;85.87;99670.06;4475631;32;34094;-78
2023/05/12 06:00:48;;;;;;;;;;;;;;;12.37;86.83;99663.81;4481113;32;32834;-77
2023/05/12 06:03:17;;;;;;;;;;;;;;;12.42;86.25;99662.81;4477195;32;34097;-77
2023/05/12 06:05:45;;;;;;;;;;;;;;;12.64;86.74;99665.84;4476582;32;34358;-77
2023/05/12 06:08:14;;;;;;;;;;;;;;;12.93;85.30;99678.22;4475939;32;33789;-77
2023/05/12 06:10:43;;;;;;;;;;;;;;;13.35;82.94;99678.09;4464392;32;34068;-77
2023/05/12 06:13:12;;;;;;;;;;;;;;;12.84;83.47;99678.41;4465371;32;33538;-77
2023/05/12 06:15:41;;;;;;;;;;;;;;;13.28;82.43;99673.94;4460598;32;34006;-77
2023/05/12 06:18:12;;;;;;;;;;;;;;;12.43;85.05;99677.56;4461511;32;33775;-78
2023/05/12 06:20:41;;;;;;;;;;;;;;;12.63;86.26;99685.78;4461673;32;33038;-79
2023/05/12 06:23:09;;;;;;;;;;;;;;;12.43;85.54;99677.56;4467335;32;34751;-77
2023/05/12 06:25:38;;;;;;;;;;;;;;;12.55;85.71;99672.94;4460944;32;33672;-77
2023/05/12 06:28:08;;;;;;;;;;;;;;;12.41;86.57;99680.19;4461188;32;34100;-78
2023/05/12 06:30:39;;;;;;;;;;;;;;;12.29;87.91;99675.25;4459874;32;32795;-77
2023/05/12 06:33:11;;;;;;;;;;;;;;;12.22;87.77;99671.91;4464470;32;34000;-77
2023/05/12 06:35:42;;;;;;;;;;;;;;;12.44;86.76;99674.91;4451555;32;34672;-78
2023/05/12 06:38:18;;;;;;;;;;;;;;;12.97;84.14;99677.22;4445870;32;34788;-79
2023/05/12 06:40:47;;;;;;;;;;;;;;;12.99;83.81;99678.91;4448469;32;32870;-78
2023/05/12 06:43:17;;;;;;;;;;;;;;;12.97;84.54;99680.69;4461411;32;34038;-77
2023/05/12 06:45:47;;;;;;;;;;;;;;;13.09;83.61;99679.53;4451586;32;35580;-78
2023/05/12 06:48:16;;;;;;;;;;;;;;;12.80;86.46;99675.84;4445852;32;33127;-78
2023/05/12 06:50:45;;;;;;;;;;;;;;;13.02;86.02;99672.75;4457130;32;33191;-77
2023/05/12 06:53:14;;;;;;;;;;;;;;;13.13;84.71;99675.97;4462259;32;33597;-77
2023/05/12 06:55:43;;;;;;;;;;;;;;;13.10;85.19;99678.66;4475620;32;34606;-79
2023/05/12 06:58:11;;;;;;;;;;;;;;;13.09;85.15;99679.53;4480833;32;32954;-79
2023/05/12 07:00:42;;;;;;;;;;;;;;;13.36;84.88;99677.19;4468517;32;32992;-77
2023/05/12 07:03:11;;;;;;;;;;;;;;;12.86;86.83;99672.28;4464173;32;34649;-78
2023/05/12 07:05:40;;;;;;;;;;;;;;;13.03;84.78;99675.34;4461059;32;33260;-79
2023/05/12 07:08:09;;;;;;;;;;;;;;;12.70;84.97;99682.16;4465365;32;34478;-77
2023/05/12 07:10:38;;;;;;;;;;;;;;;13.17;85.60;99687.19;4459527;32;33587;-79
2023/05/12 07:13:07;;;;;;;;;;;;;;;13.12;83.52;99679.50;4459491;32;34376;-79
2023/05/12 07:15:35;;;;;;;;;;;;;;;12.87;86.02;99683.53;4459306;32;34207;-77
2023/05/12 07:18:04;;;;;;;;;;;;;;;12.64;86.29;99679.72;4465274;32;34869;-79
2023/05/12 07:20:37;;;;;;;;;;;;;;;13.22;84.99;99678.38;4459471;32;33466;-79
2023/05/12 07:23:11;;;;;;;;;;;;;;;13.69;82.21;99685.06;4464116;32;34382;-78
2023/05/12 07:25:40;;;;;;;;;;;;;;;13.20;85.03;99687.13;4467275;32;32437;-79
2023/05/12 07:28:08;;;;;;;;;;;;;;;13.51;83.31;99679.44;4477242;32;33664;-77
2023/05/12 07:30:37;;;;;;;;;;;;;;;13.56;81.39;99680.16;4482533;32;33414;-78
2023/05/12 07:33:07;;;;;;;;;;;;;;;13.49;82.37;99682.97;4465566;32;34960;-78
2023/05/12 07:35:39;;;;;;;;;;;;;;;13.77;80.79;99683.09;4472745;32;33692;-77
2023/05/12 07:38:10;;;;;;;;;;;;;;;14.06;79.64;99680.59;4477236;32;33315;-79
2023/05/12 07:40:38;;;;;;;;;;;;;;;13.69;81.68;99679.84;4482499;32;33708;-78
2023/05/12 07:43:10;;;;;;;;;;;;;;;13.37;84.32;99687.59;4482391;32;33007;-79
2023/05/12 07:45:39;;;;;;;;;;;;;;;13.68;82.02;99688.56;4476986;32;34954;-79
2023/05/12 07:48:07;;;;;;;;;;;;;;;13.58;81.70;99683.59;4477086;32;33584;-78
2023/05/12 07:50:40;;;;;;;;;;;;;;;13.83;81.40;99688.16;4476851;32;33618;-78
2023/05/12 07:53:08;;;;;;;;;;;;;;;13.95;80.83;99692.19;4482037;32;34171;-79
2023/05/12 07:55:37;;;;;;;;;;;;;;;13.77;80.84;99686.59;4476654;32;34846;-78
2023/05/12 07:58:05;;;;;;;;;;;;;;;13.75;81.18;99685.75;4476779;32;34138;-78
2023/05/12 08:00:34;;;;;;;;;;;;;;;14.03;81.17;99685.00;4464013;32;33245;-80
2023/05/12 08:03:03;;;;;;;;;;;;;;;13.71;82.15;99685.88;4466783;32;33332;-79
2023/05/12 08:05:31;;;;;;;;;;;;;;;13.72;80.61;99691.03;4460943;32;33883;-79
2023/05/12 08:08:01;;;;;;;;;;;;;;;13.79;80.78;99689.97;4465566;32;34149;-80
2023/05/12 08:10:31;;;;;;;;;;;;;;;13.54;80.63;99689.78;4476554;32;33004;-79
2023/05/12 08:12:59;;;;;;;;;;;;;;;13.71;80.40;99696.31;4461219;32;34204;-79
2023/05/12 08:15:28;;;;;;;;;;;;;;;14.12;79.57;99699.56;4466541;32;33848;-78
2023/05/12 08:17:56;;;;;;;;;;;;;;;14.25;78.43;99708.75;4461234;32;34504;-78
2023/05/12 08:20:25;;;;;;;;;;;;;;;14.30;77.69;99705.13;4461117;32;33569;-79
2023/05/12 08:22:55;;;;;;;;;;;;;;;14.56;76.89;99706.16;4458713;32;32983;-78
2023/05/12 08:25:29;;;;;;;;;;;;;;;14.74;75.92;99699.56;4467026;32;33489;-80
2023/05/12 08:27:58;;;;;;;;;;;;;;;14.54;75.77;99702.72;4462646;32;34524;-80
2023/05/12 08:30:27;;;;;;;;;;;;;;;14.64;75.21;99704.19;4461758;32;32563;-79
2023/05/12 08:32:55;;;;;;;;;;;;;;;14.14;76.52;99709.06;4462454;32;33933;-79
2023/05/12 08:35:24;;;;;;;;;;;;;;;15.10;72.23;99709.75;4472284;32;34618;-79
2023/05/12 08:37:55;;;;;;;;;;;;;;;14.77;72.81;99712.50;4476404;32;35056;-78
2023/05/12 08:40:27;;;;;;;;;;;;;;;14.40;74.80;99716.16;4471443;32;32983;-78
2023/05/12 08:42:57;;;;;;;;;;;;;;;14.44;75.17;99709.94;4464408;32;34227;-79
2023/05/12 08:45:29;;;;;;;;;;;;;;;14.63;73.16;99714.66;4462855;32;34076;-79
2023/05/12 08:47:57;;;;;;;;;;;;;;;14.62;73.75;99719.03;4467841;32;34039;-80
2023/05/12 08:50:26;;;;;;;;;;;;;;;14.89;73.43;99712.13;4462826;32;33703;-79
2023/05/12 08:52:54;;;;;;;;;;;;;;;14.54;74.48;99712.31;4462463;32;33914;-78
2023/05/12 08:55:25;;;;;;;;;;;;;;;15.15;71.50;99710.47;4462300;32;33872;-80
2023/05/12 08:58:04;;;;;;;;;;;;;;;15.15;71.76;99710.47;4462271;32;34135;-78
2023/05/12 09:00:33;;;;;;;;;;;;;;;15.53;70.61;99716.22;4467918;32;34158;-79
2023/05/12 09:03:02;;;;;;;;;;;;;;;15.41;70.92;99714.00;4462477;32;34380;-79
2023/05/12 09:05:30;;;;;;;;;;;;;;;15.48;69.55;99720.75;4471952;32;35144;-79
2023/05/12 09:07:59;;;;;;;;;;;;;;;15.90;68.05;99717.59;4478013;32;34427;-79
2023/05/12 09:10:28;;;;;;;;;;;;;;;15.93;69.18;99725.38;4483322;32;33905;-78
2023/05/12 09:13:01;;;;;;;;;;;;;;;15.83;69.65;99723.97;4463159;32;35184;-78
2023/05/12 09:15:33;;;;;;;;;;;;;;;15.83;69.32;99729.22;4462419;32;33796;-78
2023/05/12 09:18:02;;;;;;;;;;;;;;;15.92;68.78;99731.50;4462760;32;33856;-78
2023/05/12 09:20:30;;;;;;;;;;;;;;;15.68;69.53;99734.03;4462907;32;33238;-78
2023/05/12 09:22:59;;;;;;;;;;;;;;;15.58;70.16;99736.09;4467734;32;34010;-78
2023/05/12 09:25:28;;;;;;;;;;;;;;;15.68;69.17;99733.16;4477596;31;34648;-79
2023/05/12 09:27:56;;;;;;;;;;;;;;;15.53;70.00;99739.75;4464009;32;34012;-78
2023/05/12 09:30:29;;;;;;;;;;;;;;;15.49;70.54;99739.00;4462311;32;33797;-77
2023/05/12 09:33:08;;;;;;;;;;;;;;;14.66;70.83;99743.28;4467558;32;34465;-79
2023/05/12 09:35:40;;;;;;;;;;;;;;;15.40;69.76;99744.53;4462383;32;33767;-78
2023/05/12 09:38:13;;;;;;;;;;;;;;;15.30;70.55;99743.97;4461960;32;33895;-78
2023/05/12 09:40:42;;;;;;;;;;;;;;;15.31;70.16;99758.72;4462389;32;33055;-78
2023/05/12 09:43:10;;;;;;;;;;;;;;;15.05;69.71;99753.44;4463112;32;33744;-77
2023/05/12 09:45:45;;;;;;;;;;;;;;;14.93;71.18;99758.16;4467350;32;33669;-78
2023/05/12 09:48:15;;;;;;;;;;;;;;;14.71;72.65;99747.50;4461079;32;33798;-78
2023/05/12 09:50:47;;;;;;;;;;;;;;;14.30;73.77;99757.31;4461794;32;33663;-77
2023/05/12 09:53:17;;;;;;;;;;;;;;;14.75;73.27;99752.62;4462364;32;34603;-79
2023/05/12 09:55:47;;;;;;;;;;;;;;;14.07;75.69;99755.31;4463169;32;33753;-78
2023/05/12 09:58:16;;;;;;;;;;;;;;;13.96;75.08;99757.34;4455224;32;33956;-77
2023/05/12 10:00:44;;;;;;;;;;;;;;;14.24;72.85;99757.47;4450428;32;32808;-78
2023/05/12 10:03:20;;;;;;;;;;;;;;;14.37;72.55;99757.13;4450981;32;33226;-79
2023/05/12 10:05:50;;;;;;;;;;;;;;;13.66;75.07;99759.84;4446341;32;33947;-78
2023/05/12 10:08:21;;;;;;;;;;;;;;;13.14;76.95;99755.81;4451795;32;33210;-79
2023/05/12 10:10:51;;;;;;;;;;;;;;;13.22;77.56;99759.13;4451552;32;33128;-78
2023/05/12 10:13:20;;;;;;;;;;;;;;;12.90;80.05;99757.25;4464456;32;34233;-79
2023/05/12 10:15:48;;;;;;;;;;;;;;;13.19;80.57;99754.00;4462027;32;33957;-78
2023/05/12 10:18:18;;;;;;;;;;;;;;;13.03;80.21;99747.41;4464658;32;33765;-77
2023/05/12 10:20:47;;;;;;;;;;;;;;;12.89;80.94;99747.69;4465099;32;32257;-77
2023/05/12 10:23:15;;;;;;;;;;;;;;;13.43;78.25;99736.09;4457546;32;33459;-77
2023/05/12 10:25:44;;;;;;;;;;;;;;;13.12;80.30;99747.22;4458136;32;33911;-78
2023/05/12 10:28:15;;;;;;;;;;;;;;;12.36;85.57;99745.31;4458797;32;33991;-76
2023/05/12 10:30:43;;;;;;;;;;;;;;;12.36;87.71;99740.13;4464781;32;34143;-77
2023/05/12 10:33:12;;;;;;;;;;;;;;;12.19;88.35;99742.19;4459351;32;34813;-78
2023/05/12 10:35:42;;;;;;;;;;;;;;;12.56;87.54;99746.66;4459018;32;33776;-78
2023/05/12 10:38:13;;;;;;;;;;;;;;;12.33;87.49;99749.75;4458473;32;34436;-78
2023/05/12 10:40:52;;;;;;;;;;;;;;;12.06;89.91;99751.97;4465989;32;32404;-78
2023/05/12 10:43:23;;;;;;;;;;;;;;;12.43;90.20;99758.22;4465033;32;34398;-77
2023/05/12 10:46:07;;;;;;;;;;;;;;;12.90;87.12;99748.56;4458431;32;34968;-79
2023/05/12 10:48:36;;;;;;;;;;;;;;;12.42;89.84;99748.69;4457309;32;33337;-78
2023/05/12 10:51:14;;;;;;;;;;;;;;;12.83;87.97;99753.06;4458587;32;33088;-79
2023/05/12 10:53:44;;;;;;;;;;;;;;;12.73;87.25;99747.19;4457173;32;33815;-79
2023/05/12 10:56:23;;;;;;;;;;;;;;;12.36;88.83;99760.94;4464132;32;34805;-79
2023/05/12 10:59:08;;;;;;;;;;;;;;;12.57;88.44;99762.25;4457765;32;34685;-79
2023/05/12 11:01:37;;;;;;;;;;;;;;;13.34;84.84;99758.03;4459278;32;33696;-78
2023/05/12 11:04:14;;;;;;;;;;;;;;;12.99;85.45;99764.84;4460121;32;34051;-79
2023/05/12 11:06:44;;;;;;;;;;;;;;;12.96;86.00;99767.50;4454847;32;34604;-80
2023/05/12 11:09:14;;;;;;;;;;;;;;;12.88;86.75;99760.75;4462695;32;34389;-79
2023/05/12 11:11:45;;;;;;;;;;;;;;;13.14;83.56;99770.59;4457404;32;32707;-80
2023/05/12 11:14:15;;;;;;;;;;;;;;;13.30;81.82;99758.97;4458395;32;33940;-78
2023/05/12 11:16:43;;;;;;;;;;;;;;;13.03;83.96;99763.03;4457978;32;34217;-78
2023/05/12 11:19:12;;;;;;;;;;;;;;;13.00;84.25;99761.34;4463860;32;34525;-79
2023/05/12 11:21:41;;;;;;;;;;;;;;;13.02;85.69;99750.88;4457953;32;31724;-78
2023/05/12 11:24:11;;;;;;;;;;;;;;;12.60;86.89;99758.72;4456467;32;34377;-80
2023/05/12 11:26:42;;;;;;;;;;;;;;;12.86;87.04;99758.19;4458185;32;33931;-80
2023/05/12 11:29:11;;;;;;;;;;;;;;;13.07;85.37;99753.41;4457022;32;33747;-79
2023/05/12 11:31:40;;;;;;;;;;;;;;;12.50;88.21;99754.59;4463475;32;32886;-78
2023/05/12 11:34:09;;;;;;;;;;;;;;;12.37;87.97;99756.56;4459956;32;34172;-79
2023/05/12 11:36:42;;;;;;;;;;;;;;;12.38;88.42;99759.16;4460359;32;34480;-79
2023/05/12 11:39:15;;;;;;;;;;;;;;;12.45;88.12;99759.06;4461936;32;33541;-79
2023/05/12 11:41:43;;;;;;;;;;;;;;;12.24;88.39;99755.97;4465582;32;33671;-80
2023/05/12 11:44:13;;;;;;;;;;;;;;;12.40;87.36;99759.13;4457522;32;34151;-79
2023/05/12 11:46:53;;;;;;;;;;;;;;;12.48;86.86;99745.97;4458213;32;34215;-80
2023/05/12 11:49:22;;;;;;;;;;;;;;;11.99;87.83;99749.50;4460267;32;33842;-79
2023/05/12 11:51:51;;;;;;;;;;;;;;;12.19;88.67;99749.13;4458338;32;33008;-78
2023/05/12 11:54:20;;;;;;;;;;;;;;;12.52;86.81;99745.03;4464001;32;33850;-79
2023/05/12 11:56:49;;;;;;;;;;;;;;;12.70;85.03;99742.03;4456343;32;33148;-81
2023/05/12 11:59:28;;;;;;;;;;;;;;;12.90;84.37;99751.16;4456803;32;34582;-80
2023/05/12 12:01:57;;;;;;;;;;;;;;;12.84;83.97;99752.16;4456632;32;33787;-80
2023/05/12 12:04:32;;;;;;;;;;;;;;;12.49;86.42;99755.47;4456976;32;33274;-79
2023/05/12 12:07:02;;;;;;;;;;;;;;;12.55;87.05;99755.38;4462141;32;35089;-79
2023/05/12 12:09:32;;;;;;;;;;;;;;;12.28;88.35;99749.81;4429047;32;891548;-79
2023/05/12 12:12:01;;;;;;;;;;;;;;;12.38;89.40;99748.75;4462666;32;31585;-78
2023/05/12 12:14:30;;;;;;;;;;;;;;;12.40;90.37;99753.09;4463324;32;34944;-79
2023/05/12 12:16:59;;;;;;;;;;;;;;;12.75;86.13;99753.19;4467193;32;34726;-79
2023/05/12 12:19:27;;;;;;;;;;;;;;;13.04;84.66;99749.09;4464126;32;33822;-81
2023/05/12 12:21:56;;;;;;;;;;;;;;;12.55;85.51;99761.44;4463383;32;32981;-80
2023/05/12 12:24:25;;;;;;;;;;;;;;;12.78;86.05;99757.47;4464623;32;34983;-80
2023/05/12 12:26:55;;;;;;;;;;;;;;;12.71;86.96;99764.59;4463107;32;34030;-81
2023/05/12 12:29:25;;;;;;;;;;;;;;;13.15;84.64;99762.75;4468669;32;34705;-80
2023/05/12 12:31:53;;;;;;;;;;;;;;;13.24;83.16;99769.53;4462003;32;33240;-78
2023/05/12 12:34:22;;;;;;;;;;;;;;;13.39;82.73;99769.19;4462252;32;34736;-79
2023/05/12 12:36:50;;;;;;;;;;;;;;;13.09;83.71;99769.84;4457463;32;34217;-80
2023/05/12 12:39:18;;;;;;;;;;;;;;;13.03;84.38;99778.66;4465699;32;33922;-78
2023/05/12 12:41:50;;;;;;;;;;;;;;;12.45;86.42;99780.72;4461476;32;35108;-78
2023/05/12 12:44:20;;;;;;;;;;;;;;;12.47;86.79;99778.94;4461778;32;34884;-79
2023/05/12 12:46:48;;;;;;;;;;;;;;;12.44;88.26;99778.97;4461280;32;34940;-78
2023/05/12 12:49:17;;;;;;;;;;;;;;;12.52;89.52;99776.25;4465879;32;32271;-79
2023/05/12 12:51:45;;;;;;;;;;;;;;;12.29;89.88;99776.69;4462323;32;33105;-81
2023/05/12 12:54:14;;;;;;;;;;;;;;;11.92;92.03;99774.75;4458923;32;33904;-80
2023/05/12 12:56:43;;;;;;;;;;;;;;;12.05;91.42;99772.78;4462448;32;34043;-78
2023/05/12 12:59:11;;;;;;;;;;;;;;;12.75;87.93;99780.97;4459751;32;34124;-78
2023/05/12 13:01:41;;;;;;;;;;;;;;;12.53;88.42;99777.97;4466806;32;33335;-79